createdAt,value
2023-10-07T00:00:36.955Z,3.20
2023-10-07T00:03:39.624Z,3.70
2023-10-07T00:06:27.647Z,3.00
2023-10-07T00:09:16.015Z,2.90
2023-10-07T00:12:03.862Z,2.40
2023-10-07T00:14:50.123Z,2.30
2023-10-07T00:20:27.732Z,2.30
2023-10-07T00:23:21.850Z,2.50
2023-10-07T00:26:10.206Z,2.60
2023-10-07T00:29:02.149Z,2.40
2023-10-07T00:31:51.249Z,2.50
2023-10-07T00:34:40.049Z,2.70
2023-10-07T00:37:26.783Z,3.20
2023-10-07T00:40:25.389Z,2.70
2023-10-07T00:43:25.890Z,3.30
2023-10-07T00:46:11.740Z,2.90
2023-10-07T00:48:58.474Z,3.60
2023-10-07T00:51:47.110Z,4.10
2023-10-07T00:54:51.135Z,2.70
2023-10-07T01:00:27.713Z,2.70
2023-10-07T01:03:19.705Z,2.90
2023-10-07T01:06:11.054Z,2.90
2023-10-07T01:09:04.826Z,4.00
2023-10-07T01:11:58.656Z,3.70
2023-10-07T01:14:48.142Z,2.80
2023-10-07T01:17:41.471Z,2.20
2023-10-07T01:21:01.100Z,2.40
2023-10-07T01:23:46.803Z,3.30
2023-10-07T01:26:40.737Z,3.00
2023-10-07T01:29:29.105Z,3.20
2023-10-07T01:32:20.414Z,3.00
2023-10-07T01:35:11.740Z,2.90
2023-10-07T01:38:09.337Z,3.40
2023-10-07T01:40:56.213Z,3.00
2023-10-07T01:43:42.669Z,7.10
2023-10-07T01:46:31.922Z,5.70
2023-10-07T01:49:18.015Z,2.80
2023-10-07T01:55:50.057Z,2.90
2023-10-07T01:58:40.913Z,3.30
2023-10-07T02:01:29.025Z,3.20
2023-10-07T02:05:01.811Z,4.40
2023-10-07T02:07:56.512Z,2.90
2023-10-07T02:10:42.280Z,5.70
2023-10-07T02:13:30.736Z,7.50
2023-10-07T02:16:17.600Z,4.20
2023-10-07T02:19:05.128Z,4.90
2023-10-07T02:21:52.073Z,7.30
2023-10-07T02:24:42.654Z,3.80
2023-10-07T02:27:29.757Z,4.80
2023-10-07T02:30:21.855Z,5.30
2023-10-07T02:33:09.041Z,3.70
2023-10-07T02:35:56.432Z,3.60
2023-10-07T02:39:02.676Z,3.40
2023-10-07T02:41:54.972Z,3.60
2023-10-07T02:44:41.860Z,3.00
2023-10-07T02:47:32.390Z,3.60
2023-10-07T02:50:21.134Z,4.90
2023-10-07T02:53:15.254Z,3.90
2023-10-07T02:56:17.395Z,3.70
2023-10-07T02:59:05.278Z,3.80
2023-10-07T03:02:09.504Z,4.40
2023-10-07T03:05:15.045Z,6.10
2023-10-07T03:08:05.147Z,4.30
2023-10-07T03:11:14.643Z,4.10
2023-10-07T03:14:00.481Z,6.60
2023-10-07T03:16:47.052Z,4.50
2023-10-07T03:19:52.177Z,4.00
2023-10-07T03:22:58.143Z,3.50
2023-10-07T03:25:59.257Z,5.40
2023-10-07T03:29:08.347Z,8.30
2023-10-07T03:31:55.003Z,3.60
2023-10-07T03:34:46.202Z,4.50
2023-10-07T03:37:34.569Z,5.60
2023-10-07T03:40:29.182Z,4.80
2023-10-07T03:43:15.987Z,3.70
2023-10-07T03:46:02.263Z,4.30
2023-10-07T03:48:56.674Z,4.50
2023-10-07T03:51:46.037Z,4.70
2023-10-07T03:54:31.600Z,5.30
2023-10-07T03:57:19.220Z,10.00
2023-10-07T04:00:11.632Z,6.30
2023-10-07T04:03:02.606Z,4.90
2023-10-07T04:05:50.020Z,3.80
2023-10-07T04:08:36.037Z,4.90
2023-10-07T04:11:28.745Z,5.60
2023-10-07T04:14:28.121Z,6.60
2023-10-07T04:17:13.910Z,8.10
2023-10-07T04:20:15.323Z,17.80
2023-10-07T04:23:03.520Z,13.70
2023-10-07T04:25:49.240Z,18.00
2023-10-07T04:28:35.309Z,15.90
2023-10-07T04:31:30.043Z,12.70
2023-10-07T04:34:16.981Z,14.50
2023-10-07T04:37:02.291Z,12.50
2023-10-07T04:39:47.987Z,11.20
2023-10-07T04:42:59.161Z,16.70
2023-10-07T04:45:53.583Z,23.90
2023-10-07T04:48:54.740Z,18.90
2023-10-07T04:51:43.484Z,20.10
2023-10-07T04:54:36.345Z,14.20
2023-10-07T04:57:44.121Z,9.20
2023-10-07T05:00:32.403Z,11.90
2023-10-07T05:03:20.026Z,12.00
2023-10-07T05:06:05.526Z,9.30
2023-10-07T05:08:52.288Z,9.20
2023-10-07T05:11:43.540Z,9.90
2023-10-07T05:14:30.023Z,10.00
2023-10-07T05:17:17.293Z,10.20
2023-10-07T05:20:23.638Z,10.40
2023-10-07T05:23:14.721Z,9.60
2023-10-07T05:26:09.718Z,10.60
2023-10-07T05:28:55.673Z,14.70
2023-10-07T05:31:43.588Z,9.30
2023-10-07T05:34:29.326Z,9.50
2023-10-07T05:37:15.854Z,9.40
2023-10-07T05:40:04.948Z,8.20
2023-10-07T05:42:53.444Z,10.10
2023-10-07T05:45:41.108Z,10.90
2023-10-07T05:48:27.170Z,8.20
2023-10-07T05:51:16.134Z,6.10
2023-10-07T05:54:01.776Z,6.30
2023-10-07T05:56:50.276Z,6.90
2023-10-07T05:59:36.341Z,6.50
2023-10-07T06:02:22.231Z,5.80
2023-10-07T06:05:08.231Z,6.30
2023-10-07T06:07:59.677Z,5.60
2023-10-07T06:10:52.764Z,7.20
2023-10-07T06:13:40.986Z,5.00
2023-10-07T06:16:26.807Z,4.10
2023-10-07T06:19:13.962Z,4.50
2023-10-07T06:21:59.499Z,6.10
2023-10-07T06:24:45.040Z,3.80
2023-10-07T06:27:37.629Z,8.40
2023-10-07T06:30:26.943Z,4.60
2023-10-07T06:33:14.770Z,3.80
2023-10-07T06:36:00.526Z,3.80
2023-10-07T06:38:59.249Z,5.30
2023-10-07T06:41:45.214Z,4.50
2023-10-07T06:44:31.191Z,5.20
2023-10-07T06:47:18.134Z,4.80
2023-10-07T06:50:04.884Z,4.90
2023-10-07T06:52:50.970Z,4.90
2023-10-07T06:55:37.549Z,5.40
2023-10-07T06:58:23.615Z,18.00
2023-10-07T07:01:18.581Z,8.50
2023-10-07T07:04:20.291Z,10.60
2023-10-07T07:07:12.439Z,7.70
2023-10-07T07:09:59.136Z,7.60
2023-10-07T07:12:45.347Z,8.30
2023-10-07T07:15:37.263Z,34.70
2023-10-07T07:18:26.444Z,140.90
2023-10-07T07:21:32.130Z,100.80
2023-10-07T07:24:25.859Z,44.40
2023-10-07T07:27:13.064Z,18.20
2023-10-07T07:30:01.727Z,11.10
2023-10-07T07:32:58.365Z,7.00
2023-10-07T07:35:44.177Z,10.00
2023-10-07T07:38:49.284Z,7.10
2023-10-07T07:41:38.427Z,8.90
2023-10-07T07:44:34.026Z,8.70
2023-10-07T07:47:19.960Z,6.20
2023-10-07T07:50:08.797Z,9.30
2023-10-07T07:52:54.686Z,9.20
2023-10-07T07:55:45.376Z,7.30
2023-10-07T07:58:31.095Z,5.30
2023-10-07T08:01:29.087Z,5.20
2023-10-07T08:04:18.460Z,6.20
2023-10-07T08:07:19.551Z,4.30
2023-10-07T08:10:12.830Z,8.00
2023-10-07T08:12:59.852Z,7.20
2023-10-07T08:15:48.205Z,8.20
2023-10-07T08:18:34.027Z,7.80
2023-10-07T08:21:28.969Z,8.50
2023-10-07T08:24:14.620Z,10.80
2023-10-07T08:27:03.743Z,8.20
2023-10-07T08:29:54.434Z,5.90
2023-10-07T08:32:42.178Z,9.70
2023-10-07T08:35:27.880Z,10.00
2023-10-07T08:38:30.342Z,5.90
2023-10-07T08:41:19.028Z,5.00
2023-10-07T08:44:14.046Z,4.60
2023-10-07T08:47:11.380Z,4.60
2023-10-07T08:49:59.160Z,4.20
2023-10-07T08:52:44.888Z,5.90
2023-10-07T08:55:32.662Z,4.90
2023-10-07T08:58:26.751Z,4.10
2023-10-07T09:01:19.157Z,6.90
2023-10-07T09:04:08.401Z,5.20
2023-10-07T09:06:53.991Z,4.70
2023-10-07T09:09:40.706Z,4.50
2023-10-07T09:12:39.240Z,5.30
2023-10-07T09:15:29.743Z,4.60
2023-10-07T09:18:18.637Z,5.30
2023-10-07T09:21:09.919Z,5.00
2023-10-07T09:24:03.355Z,5.10
2023-10-07T09:26:57.097Z,5.20
2023-10-07T09:29:52.021Z,4.90
2023-10-07T09:32:38.518Z,5.00
2023-10-07T09:35:26.479Z,5.90
2023-10-07T09:38:28.181Z,7.60
2023-10-07T09:41:24.276Z,6.00
2023-10-07T09:44:29.279Z,5.40
2023-10-07T09:47:23.108Z,5.50
2023-10-07T09:50:28.176Z,7.20
2023-10-07T09:53:37.334Z,5.30
2023-10-07T09:56:44.232Z,7.60
2023-10-07T09:59:51.959Z,6.50
2023-10-07T10:03:05.921Z,5.90
2023-10-07T10:06:34.290Z,6.80
2023-10-07T10:09:28.437Z,5.70
2023-10-07T10:12:28.093Z,6.90
2023-10-07T10:15:21.882Z,7.70
2023-10-07T10:18:28.223Z,7.40
2023-10-07T10:21:14.270Z,5.90
2023-10-07T10:24:03.466Z,6.00
2023-10-07T10:26:51.061Z,6.80
2023-10-07T10:29:54.274Z,5.50
2023-10-07T10:32:49.086Z,5.90
2023-10-07T10:35:41.036Z,5.30
2023-10-07T10:38:41.672Z,6.00
2023-10-07T10:41:28.621Z,7.10
2023-10-07T10:44:23.425Z,6.60
2023-10-07T10:47:10.583Z,7.00
2023-10-07T10:49:56.655Z,7.50
2023-10-07T10:55:35.603Z,5.80
2023-10-07T10:58:22.634Z,6.00
2023-10-07T11:01:08.260Z,7.00
2023-10-07T11:03:55.623Z,5.50
2023-10-07T11:06:41.410Z,6.00
2023-10-07T11:09:35.797Z,5.60
2023-10-07T11:12:27.651Z,5.30
2023-10-07T11:15:14.274Z,4.90
2023-10-07T11:18:21.767Z,5.40
2023-10-07T11:21:22.019Z,5.80
2023-10-07T11:24:08.154Z,5.20
2023-10-07T11:27:00.577Z,5.90
2023-10-07T11:29:58.422Z,5.30
2023-10-07T11:32:45.005Z,4.90
2023-10-07T11:35:31.255Z,14.20
2023-10-07T11:38:19.219Z,4.80
2023-10-07T11:41:11.182Z,5.00
2023-10-07T11:43:57.991Z,5.70
2023-10-07T11:46:44.045Z,5.60
2023-10-07T11:49:32.133Z,5.30
2023-10-07T11:52:22.418Z,5.60
2023-10-07T11:55:08.522Z,4.80
2023-10-07T11:57:55.867Z,5.30
2023-10-07T12:00:43.082Z,14.90
2023-10-07T12:03:31.308Z,6.40
2023-10-07T12:06:18.051Z,7.00
2023-10-07T12:09:07.197Z,6.20
2023-10-07T12:11:54.275Z,6.00
2023-10-07T12:14:41.625Z,5.70
2023-10-07T12:17:27.159Z,6.10
2023-10-07T12:25:48.531Z,4.60
2023-10-07T12:28:33.942Z,5.10
2023-10-07T12:31:21.062Z,5.50
2023-10-07T12:34:10.766Z,6.00
2023-10-07T12:36:56.945Z,5.70
2023-10-07T12:39:45.605Z,4.30
2023-10-07T12:42:33.452Z,4.30
2023-10-07T12:45:20.088Z,4.30
2023-10-07T12:48:07.735Z,5.10
2023-10-07T12:50:53.811Z,4.10
2023-10-07T12:53:39.220Z,4.50
2023-10-07T12:56:26.646Z,4.60
2023-10-07T12:59:24.610Z,4.30
2023-10-07T13:02:18.110Z,5.00
2023-10-07T13:05:09.867Z,5.00
2023-10-07T13:07:55.758Z,5.30
2023-10-07T13:10:42.841Z,5.90
2023-10-07T13:13:29.943Z,5.00
2023-10-07T13:16:15.688Z,6.00
2023-10-07T13:19:02.272Z,4.90
2023-10-07T13:21:48.056Z,4.90
2023-10-07T13:24:34.552Z,4.40
2023-10-07T13:27:20.755Z,5.30
2023-10-07T13:30:13.125Z,4.20
2023-10-07T13:32:59.167Z,4.90
2023-10-07T13:35:46.411Z,3.90
2023-10-07T13:38:32.228Z,4.60
2023-10-07T13:41:18.827Z,4.80
2023-10-07T13:44:10.798Z,5.00
2023-10-07T13:46:57.189Z,4.50
2023-10-07T13:49:47.328Z,3.90
2023-10-07T13:52:42.068Z,4.80
2023-10-07T13:55:45.566Z,4.70
2023-10-07T13:58:32.654Z,4.30
2023-10-07T14:01:21.289Z,4.30
2023-10-07T14:04:07.344Z,4.50
2023-10-07T14:07:01.531Z,4.00
2023-10-07T14:09:49.939Z,4.00
2023-10-07T14:12:37.085Z,4.40
2023-10-07T14:15:23.495Z,5.00
2023-10-07T14:18:08.826Z,4.90
2023-10-07T14:21:02.842Z,4.60
2023-10-07T14:23:48.902Z,4.40
2023-10-07T14:26:35.453Z,4.30
2023-10-07T14:29:22.048Z,3.80
2023-10-07T14:32:10.234Z,4.10
2023-10-07T14:34:56.069Z,6.20
2023-10-07T14:37:46.075Z,3.90
2023-10-07T14:40:38.325Z,4.30
2023-10-07T14:43:25.238Z,4.30
2023-10-07T14:46:11.353Z,3.30
2023-10-07T14:48:58.931Z,3.70
2023-10-07T14:51:45.442Z,5.90
2023-10-07T14:54:31.069Z,4.00
2023-10-07T14:57:21.889Z,3.50
2023-10-07T15:00:11.124Z,5.80
2023-10-07T15:02:59.383Z,3.80
2023-10-07T15:05:46.635Z,4.40
2023-10-07T15:08:35.653Z,4.00
2023-10-07T15:11:22.484Z,4.00
2023-10-07T15:14:09.623Z,3.90
2023-10-07T15:16:55.492Z,3.20
2023-10-07T15:19:41.513Z,4.40
2023-10-07T15:22:28.843Z,4.00
2023-10-07T15:25:15.153Z,3.70
2023-10-07T15:28:00.593Z,3.40
2023-10-07T15:30:51.621Z,4.00
2023-10-07T15:33:56.948Z,3.90
2023-10-07T15:36:43.364Z,4.80
2023-10-07T15:39:33.985Z,4.20
2023-10-07T15:42:21.764Z,4.60
2023-10-07T15:45:08.524Z,3.70
2023-10-07T15:47:54.038Z,3.70
2023-10-07T15:50:39.843Z,4.80
2023-10-07T15:53:29.943Z,5.30
2023-10-07T15:56:18.404Z,4.60
2023-10-07T15:59:05.542Z,7.10
2023-10-07T16:01:52.350Z,4.90
2023-10-07T16:04:39.973Z,3.80
2023-10-07T16:07:25.820Z,4.70
2023-10-07T16:10:14.928Z,4.50
2023-10-07T16:13:00.654Z,4.10
2023-10-07T16:15:46.019Z,3.70
2023-10-07T16:18:37.057Z,3.90
2023-10-07T16:21:22.913Z,5.60
2023-10-07T16:24:11.767Z,4.00
2023-10-07T16:26:57.463Z,3.80
2023-10-07T16:29:42.865Z,4.00
2023-10-07T16:32:30.320Z,4.60
2023-10-07T16:35:16.436Z,3.60
2023-10-07T16:40:48.959Z,4.30
2023-10-07T16:43:38.208Z,4.10
2023-10-07T16:46:29.756Z,3.90
2023-10-07T16:52:05.909Z,3.60
2023-10-07T16:54:57.569Z,4.30
2023-10-07T16:57:43.449Z,4.60
2023-10-07T17:00:29.043Z,5.00
2023-10-07T17:03:14.813Z,4.80
2023-10-07T17:06:03.138Z,4.50
2023-10-07T17:08:49.168Z,4.40
2023-10-07T17:11:34.841Z,4.90
2023-10-07T17:14:21.136Z,5.40
2023-10-07T17:17:07.042Z,4.80
2023-10-07T17:19:53.051Z,4.00
2023-10-07T17:22:38.441Z,5.10
2023-10-07T17:25:26.948Z,5.00
2023-10-07T17:28:12.715Z,4.00
2023-10-07T17:30:58.284Z,4.20
2023-10-07T17:33:43.774Z,3.50
2023-10-07T17:36:30.005Z,3.70
2023-10-07T17:42:03.152Z,4.30
2023-10-07T17:44:48.599Z,4.70
2023-10-07T17:47:34.165Z,4.00
2023-10-07T17:50:20.850Z,3.80
2023-10-07T17:53:09.201Z,5.80
2023-10-07T17:55:54.877Z,4.50
2023-10-07T17:58:40.735Z,4.40
2023-10-07T18:01:27.861Z,4.60
2023-10-07T18:04:15.753Z,4.00
2023-10-07T18:07:01.526Z,5.00
2023-10-07T18:09:47.394Z,5.40
2023-10-07T18:12:34.418Z,3.50
2023-10-07T18:15:20.536Z,4.00
2023-10-07T18:18:07.425Z,3.90
2023-10-07T18:20:54.049Z,3.40
2023-10-07T18:23:40.141Z,5.00
2023-10-07T18:26:26.214Z,5.00
2023-10-07T18:29:12.453Z,5.70
2023-10-07T18:32:01.229Z,5.30
2023-10-07T18:34:46.880Z,5.90
2023-10-07T18:37:33.142Z,5.60
2023-10-07T18:40:20.788Z,5.10
2023-10-07T18:43:08.780Z,5.70
2023-10-07T18:45:54.589Z,4.90
2023-10-07T18:48:43.434Z,5.00
2023-10-07T18:51:30.946Z,7.00
2023-10-07T18:54:16.148Z,6.10
2023-10-07T18:57:01.848Z,6.10
2023-10-07T18:59:47.938Z,5.00
2023-10-07T19:02:33.878Z,6.60
2023-10-07T19:05:19.962Z,7.00
2023-10-07T19:08:06.051Z,6.80
2023-10-07T19:10:51.707Z,6.80
2023-10-07T19:13:38.101Z,6.80
2023-10-07T19:16:23.933Z,7.60
2023-10-07T19:19:13.271Z,6.90
2023-10-07T19:22:01.052Z,7.00
2023-10-07T19:24:49.310Z,6.80
2023-10-07T19:27:35.156Z,6.30
2023-10-07T19:30:21.312Z,6.10
2023-10-07T19:33:08.377Z,7.10
2023-10-07T19:35:57.911Z,6.70
2023-10-07T19:38:44.248Z,7.60
2023-10-07T19:41:30.574Z,6.80
2023-10-07T19:44:17.127Z,6.40
2023-10-07T19:47:04.183Z,6.90
2023-10-07T19:49:50.205Z,6.30
2023-10-07T19:52:36.633Z,6.80
2023-10-07T19:55:22.936Z,6.30
2023-10-07T19:58:08.610Z,6.00
2023-10-07T20:03:44.483Z,6.00
2023-10-07T20:06:32.682Z,5.90
2023-10-07T20:09:18.875Z,6.40
2023-10-07T20:12:05.025Z,5.40
2023-10-07T20:14:51.822Z,6.30
2023-10-07T20:17:39.562Z,5.90
2023-10-07T20:20:26.575Z,5.40
2023-10-07T20:23:12.429Z,5.90
2023-10-07T20:26:12.238Z,5.10
2023-10-07T20:28:58.332Z,6.20
2023-10-07T20:31:44.408Z,5.80
2023-10-07T20:34:30.434Z,5.00
2023-10-07T20:37:17.833Z,5.00
2023-10-07T20:40:08.104Z,5.80
2023-10-07T20:42:53.596Z,5.00
2023-10-07T20:45:39.026Z,6.50
2023-10-07T20:48:25.827Z,5.20
2023-10-07T20:51:16.628Z,5.30
2023-10-07T20:54:03.090Z,5.80
2023-10-07T20:59:34.588Z,5.30
2023-10-07T21:02:20.336Z,5.30
2023-10-07T21:05:07.432Z,5.10
2023-10-07T21:07:52.866Z,5.20
2023-10-07T21:10:41.830Z,5.20
2023-10-07T21:13:28.418Z,5.20
2023-10-07T21:16:15.529Z,4.80
2023-10-07T21:19:01.378Z,5.40
2023-10-07T21:21:48.524Z,5.70
2023-10-07T21:24:34.347Z,4.50
2023-10-07T21:27:20.195Z,5.70
2023-10-07T21:30:06.566Z,5.10
2023-10-07T21:32:51.999Z,4.80
2023-10-07T21:35:43.194Z,4.70
2023-10-07T21:38:28.980Z,4.90
2023-10-07T21:41:15.346Z,4.90
2023-10-07T21:44:03.354Z,4.10
2023-10-07T21:46:49.272Z,4.70
2023-10-07T21:49:34.999Z,4.60
2023-10-07T21:52:20.585Z,4.60
2023-10-07T21:55:06.432Z,4.40
2023-10-07T21:57:53.087Z,4.60
2023-10-07T22:00:40.585Z,5.10
2023-10-07T22:03:27.580Z,5.40
2023-10-07T22:06:14.410Z,6.50
2023-10-07T22:08:59.931Z,4.00
2023-10-07T22:11:50.501Z,5.80
2023-10-07T22:14:36.201Z,5.30
2023-10-07T22:17:22.613Z,6.90
2023-10-07T22:20:12.767Z,5.60
2023-10-07T22:22:58.705Z,5.10
2023-10-07T22:25:47.264Z,4.60
2023-10-07T22:28:33.518Z,3.80
2023-10-07T22:31:21.373Z,4.70
2023-10-07T22:34:07.500Z,4.60
2023-10-07T22:36:55.228Z,4.50
2023-10-07T22:39:41.011Z,4.30
2023-10-07T22:42:38.683Z,4.00
2023-10-07T22:45:36.962Z,4.50
2023-10-07T22:48:28.199Z,4.10
2023-10-07T22:51:23.884Z,4.70
2023-10-07T22:54:18.273Z,5.20
2023-10-07T22:57:08.527Z,4.00
2023-10-07T22:59:54.174Z,4.50
2023-10-07T23:02:39.568Z,5.70
2023-10-07T23:05:25.788Z,4.60
2023-10-07T23:08:12.161Z,4.50
2023-10-07T23:11:08.915Z,4.80
2023-10-07T23:14:05.656Z,4.70
2023-10-07T23:16:53.221Z,8.00
2023-10-07T23:19:42.470Z,5.10
2023-10-07T23:22:28.252Z,4.90
2023-10-07T23:25:14.200Z,4.90
2023-10-07T23:28:06.188Z,4.70
2023-10-07T23:31:10.098Z,5.10
2023-10-07T23:34:06.390Z,4.80
2023-10-07T23:36:53.846Z,5.00
2023-10-07T23:39:39.808Z,4.50
2023-10-07T23:42:27.115Z,5.00
2023-10-07T23:45:13.917Z,4.80
2023-10-07T23:47:59.705Z,5.50
2023-10-07T23:50:57.966Z,5.70
2023-10-07T23:53:47.537Z,5.20
2023-10-07T23:56:33.805Z,5.30
2023-10-07T23:59:24.589Z,5.40
